createdAt,value
2022-11-06T00:02:14.793Z,115.20
2022-11-06T00:05:38.917Z,115.37
2022-11-06T00:08:42.617Z,131.53
2022-11-06T00:11:48.641Z,120.50
2022-11-06T00:14:52.388Z,125.43
2022-11-06T00:17:56.216Z,121.77
2022-11-06T00:20:59.821Z,122.10
2022-11-06T00:24:05.564Z,119.40
2022-11-06T00:27:10.759Z,119.87
2022-11-06T00:30:14.519Z,126.30
2022-11-06T00:33:18.249Z,112.23
2022-11-06T00:36:24.598Z,133.00
2022-11-06T00:39:28.326Z,122.93
2022-11-06T00:42:33.838Z,120.00
2022-11-06T00:45:37.575Z,125.00
2022-11-06T00:48:43.085Z,119.83
2022-11-06T00:51:46.833Z,118.47
2022-11-06T00:54:50.492Z,114.00
2022-11-06T00:57:55.562Z,115.70
2022-11-06T01:01:07.756Z,119.97
2022-11-06T01:04:14.777Z,111.73
2022-11-06T01:07:18.898Z,112.27
2022-11-06T01:10:22.629Z,111.93
2022-11-06T01:13:27.771Z,129.83
2022-11-06T01:16:32.380Z,125.67
2022-11-06T01:19:35.925Z,133.13
2022-11-06T01:22:39.652Z,124.87
2022-11-06T01:25:43.499Z,116.77
2022-11-06T01:28:48.925Z,121.93
2022-11-06T01:31:52.731Z,121.53
2022-11-06T01:34:56.428Z,114.03
2022-11-06T01:38:00.045Z,116.53
2022-11-06T01:41:03.759Z,112.47
2022-11-06T01:44:47.218Z,114.23
2022-11-06T01:47:51.196Z,116.27
2022-11-06T01:50:58.168Z,124.13
2022-11-06T01:54:04.689Z,127.13
2022-11-06T01:57:08.922Z,120.80
2022-11-06T02:00:15.393Z,123.70
2022-11-06T02:03:19.964Z,106.27
2022-11-06T02:06:24.052Z,111.60
2022-11-06T02:09:28.288Z,113.97
2022-11-06T02:12:43.478Z,118.03
2022-11-06T02:15:54.084Z,113.20
2022-11-06T02:19:09.574Z,111.80
2022-11-06T02:22:27.885Z,110.47
2022-11-06T02:25:43.732Z,112.73
2022-11-06T02:28:54.966Z,98.63
2022-11-06T02:32:05.529Z,104.93
2022-11-06T02:35:19.738Z,104.27
2022-11-06T02:38:27.725Z,107.10
2022-11-06T02:41:34.197Z,109.83
2022-11-06T02:44:40.796Z,109.77
2022-11-06T02:47:46.438Z,106.60
2022-11-06T02:50:52.537Z,102.63
2022-11-06T02:54:00.501Z,104.77
2022-11-06T02:57:10.032Z,101.23
2022-11-06T03:00:18.072Z,100.17
2022-11-06T03:03:25.727Z,99.33
2022-11-06T03:06:34.405Z,100.07
2022-11-06T03:09:38.200Z,100.10
2022-11-06T03:12:54.728Z,99.20
2022-11-06T03:16:05.793Z,101.20
2022-11-06T03:19:20.553Z,97.60
2022-11-06T03:22:32.393Z,101.90
2022-11-06T03:25:43.580Z,99.10
2022-11-06T03:28:53.099Z,102.73
2022-11-06T03:32:01.317Z,104.23
2022-11-06T03:35:13.677Z,92.50
2022-11-06T03:38:21.894Z,98.90
2022-11-06T03:41:31.426Z,100.00
2022-11-06T03:44:40.963Z,92.73
2022-11-06T03:47:49.355Z,96.97
2022-11-06T03:51:02.258Z,98.80
2022-11-06T03:54:08.332Z,92.50
2022-11-06T03:57:15.927Z,88.13
2022-11-06T04:00:21.236Z,94.57
2022-11-06T04:03:32.163Z,96.30
2022-11-06T04:06:42.000Z,99.37
2022-11-06T04:10:17.828Z,92.67
2022-11-06T04:13:41.585Z,100.97
2022-11-06T04:16:49.909Z,88.53
2022-11-06T04:19:58.978Z,110.33
2022-11-06T04:23:10.764Z,109.27
2022-11-06T04:26:37.795Z,114.07
2022-11-06T04:30:04.245Z,115.77
2022-11-06T04:33:15.470Z,117.53
2022-11-06T04:36:29.507Z,120.43
2022-11-06T04:39:41.730Z,118.67
2022-11-06T04:42:52.632Z,116.10
2022-11-06T04:45:59.318Z,106.33
2022-11-06T04:49:05.628Z,111.97
2022-11-06T04:52:15.635Z,113.27
2022-11-06T04:55:19.478Z,102.60
2022-11-06T04:58:23.204Z,98.10
2022-11-06T05:01:27.817Z,90.57
2022-11-06T05:04:32.627Z,107.00
2022-11-06T05:07:37.779Z,92.63
2022-11-06T05:10:41.420Z,96.57
2022-11-06T05:13:45.538Z,92.57
2022-11-06T05:16:49.217Z,95.20
2022-11-06T05:19:52.813Z,90.43
2022-11-06T05:23:00.739Z,92.93
2022-11-06T05:26:04.718Z,98.23
2022-11-06T05:29:08.280Z,98.57
2022-11-06T05:32:11.996Z,97.10
2022-11-06T05:35:15.647Z,94.67
2022-11-06T05:38:20.914Z,90.03
2022-11-06T05:41:24.647Z,96.47
2022-11-06T05:44:28.321Z,89.03
2022-11-06T05:47:32.067Z,94.97
2022-11-06T05:50:35.886Z,90.77
2022-11-06T05:53:41.968Z,90.93
2022-11-06T05:56:45.725Z,94.93
2022-11-06T05:59:49.574Z,98.47
2022-11-06T06:02:53.521Z,97.47
2022-11-06T06:05:57.488Z,84.40
2022-11-06T06:09:02.669Z,93.67
2022-11-06T06:12:07.106Z,91.47
2022-11-06T06:15:14.239Z,95.00
2022-11-06T06:18:17.938Z,90.60
2022-11-06T06:21:21.536Z,85.07
2022-11-06T06:24:26.783Z,87.97
2022-11-06T06:27:31.388Z,82.60
2022-11-06T06:30:36.131Z,82.50
2022-11-06T06:33:39.817Z,88.03
2022-11-06T06:36:43.626Z,88.53
2022-11-06T06:39:48.769Z,88.83
2022-11-06T06:42:52.612Z,82.57
2022-11-06T06:45:59.460Z,86.83
2022-11-06T06:49:03.328Z,92.03
2022-11-06T06:52:08.117Z,89.93
2022-11-06T06:55:13.305Z,86.20
2022-11-06T06:58:18.176Z,80.30
2022-11-06T07:01:22.121Z,90.40
2022-11-06T07:04:25.949Z,86.33
2022-11-06T07:07:29.779Z,70.57
2022-11-06T07:10:35.128Z,78.27
2022-11-06T07:13:39.053Z,78.80
2022-11-06T07:16:43.073Z,85.13
2022-11-06T07:19:47.145Z,70.90
2022-11-06T07:22:51.099Z,79.13
2022-11-06T07:25:56.750Z,78.70
2022-11-06T07:29:00.528Z,89.47
2022-11-06T07:32:04.408Z,82.97
2022-11-06T07:35:09.139Z,83.03
2022-11-06T07:38:13.352Z,79.57
2022-11-06T07:41:19.809Z,84.10
2022-11-06T07:44:23.506Z,73.50
2022-11-06T07:47:27.858Z,75.63
2022-11-06T07:50:32.616Z,84.90
2022-11-06T07:53:37.035Z,77.80
2022-11-06T07:56:42.285Z,72.13
2022-11-06T07:59:45.965Z,69.47
2022-11-06T08:02:53.628Z,64.70
2022-11-06T08:05:57.895Z,67.73
2022-11-06T08:09:01.829Z,67.80
2022-11-06T08:12:10.588Z,59.90
2022-11-06T08:15:14.391Z,60.20
2022-11-06T08:18:18.528Z,61.13
2022-11-06T08:21:22.339Z,60.37
2022-11-06T08:24:26.168Z,58.10
2022-11-06T08:27:31.410Z,53.20
2022-11-06T08:30:35.387Z,49.80
2022-11-06T08:33:40.900Z,51.57
2022-11-06T08:36:49.715Z,50.43
2022-11-06T08:39:53.625Z,56.23
2022-11-06T08:43:01.958Z,54.50
2022-11-06T08:46:06.385Z,56.70
2022-11-06T08:49:11.335Z,51.57
2022-11-06T08:52:15.077Z,60.37
2022-11-06T08:55:19.189Z,51.13
2022-11-06T08:58:24.433Z,48.43
2022-11-06T09:01:31.146Z,53.93
2022-11-06T09:04:40.116Z,38.57
2022-11-06T09:07:45.025Z,41.57
2022-11-06T09:10:48.986Z,48.70
2022-11-06T09:13:54.264Z,44.73
2022-11-06T09:16:58.689Z,43.53
2022-11-06T09:20:02.490Z,45.80
2022-11-06T09:23:13.360Z,52.30
2022-11-06T09:26:17.899Z,48.57
2022-11-06T09:29:23.126Z,48.23
2022-11-06T09:32:27.029Z,47.40
2022-11-06T09:35:32.704Z,47.13
2022-11-06T09:38:36.590Z,61.33
2022-11-06T09:41:53.632Z,54.90
2022-11-06T09:45:09.478Z,57.37
2022-11-06T09:48:21.959Z,63.27
2022-11-06T09:51:33.155Z,65.03
2022-11-06T09:54:43.714Z,58.03
2022-11-06T09:57:52.762Z,63.23
2022-11-06T10:01:01.213Z,73.53
2022-11-06T10:04:06.230Z,66.27
2022-11-06T10:07:21.081Z,67.37
2022-11-06T10:10:32.146Z,66.13
2022-11-06T10:13:55.909Z,63.17
2022-11-06T10:17:16.106Z,69.77
2022-11-06T10:20:27.275Z,60.87
2022-11-06T10:23:45.778Z,55.77
2022-11-06T10:26:58.018Z,59.40
2022-11-06T10:30:11.064Z,53.40
2022-11-06T10:33:30.285Z,51.27
2022-11-06T10:36:52.749Z,53.87
2022-11-06T10:40:05.839Z,55.57
2022-11-06T10:43:23.999Z,56.60
2022-11-06T10:46:36.346Z,58.17
2022-11-06T10:49:48.268Z,56.43
2022-11-06T10:53:00.626Z,59.00
2022-11-06T10:56:21.373Z,58.07
2022-11-06T10:59:29.143Z,56.37
2022-11-06T11:02:37.034Z,56.17
2022-11-06T11:05:46.835Z,55.70
2022-11-06T11:08:56.108Z,56.23
2022-11-06T11:12:00.736Z,51.07
2022-11-06T11:15:16.846Z,52.30
2022-11-06T11:18:31.185Z,55.33
2022-11-06T11:21:39.348Z,49.77
2022-11-06T11:25:03.814Z,49.13
2022-11-06T11:28:22.174Z,48.60
2022-11-06T11:31:32.145Z,49.63
2022-11-06T11:34:40.620Z,47.53
2022-11-06T11:37:49.558Z,52.03
2022-11-06T11:41:06.944Z,48.20
2022-11-06T11:44:17.985Z,46.57
2022-11-06T11:47:27.178Z,46.30
2022-11-06T11:50:38.207Z,50.30
2022-11-06T11:53:51.870Z,49.50
2022-11-06T11:57:07.759Z,52.50
2022-11-06T12:00:20.606Z,50.37
2022-11-06T12:03:29.009Z,51.87
2022-11-06T12:06:37.094Z,49.67
2022-11-06T12:09:55.049Z,52.43
2022-11-06T12:13:01.888Z,52.50
2022-11-06T12:16:13.945Z,61.03
2022-11-06T12:19:24.685Z,59.40
2022-11-06T12:22:35.304Z,58.50
2022-11-06T12:25:52.005Z,59.90
2022-11-06T12:29:04.887Z,57.07
2022-11-06T12:32:21.278Z,54.27
2022-11-06T12:35:29.557Z,53.13
2022-11-06T12:38:44.469Z,58.23
2022-11-06T12:41:53.330Z,52.70
2022-11-06T12:45:00.219Z,55.77
2022-11-06T12:48:13.100Z,61.20
2022-11-06T12:51:26.414Z,57.33
2022-11-06T12:54:46.422Z,51.97
2022-11-06T12:58:06.637Z,52.73
2022-11-06T13:01:20.748Z,48.87
2022-11-06T13:04:38.324Z,48.93
2022-11-06T13:08:14.867Z,52.37
2022-11-06T13:11:32.037Z,46.77
2022-11-06T13:14:43.374Z,50.43
2022-11-06T13:17:53.731Z,52.17
2022-11-06T13:21:01.125Z,47.83
2022-11-06T13:24:12.568Z,49.40
2022-11-06T13:27:26.275Z,47.13
2022-11-06T13:30:33.656Z,43.20
2022-11-06T13:33:43.727Z,48.07
2022-11-06T13:36:48.428Z,48.10
2022-11-06T13:40:02.972Z,44.20
2022-11-06T13:43:09.394Z,48.80
2022-11-06T13:46:26.202Z,46.60
2022-11-06T13:49:38.539Z,47.63
2022-11-06T13:52:50.883Z,48.27
2022-11-06T13:56:07.334Z,45.33
2022-11-06T13:59:32.782Z,46.70
2022-11-06T14:03:02.285Z,44.73
2022-11-06T14:06:08.365Z,46.97
2022-11-06T14:09:18.227Z,46.00
2022-11-06T14:12:24.625Z,46.17
2022-11-06T14:15:37.900Z,44.40
2022-11-06T14:18:43.618Z,45.10
2022-11-06T14:21:49.869Z,43.77
2022-11-06T14:24:59.970Z,41.93
2022-11-06T14:28:07.615Z,44.27
2022-11-06T14:31:14.807Z,46.60
2022-11-06T14:34:31.883Z,47.17
2022-11-06T14:37:50.228Z,52.47
2022-11-06T14:40:54.108Z,53.80
2022-11-06T14:43:59.696Z,43.13
2022-11-06T14:47:07.097Z,48.43
2022-11-06T14:50:27.269Z,52.57
2022-11-06T14:53:36.004Z,50.07
2022-11-06T14:56:40.377Z,52.63
2022-11-06T14:59:44.674Z,49.77
2022-11-06T15:02:49.934Z,54.17
2022-11-06T15:06:01.089Z,62.10
2022-11-06T15:09:06.596Z,58.70
2022-11-06T15:12:10.257Z,59.17
2022-11-06T15:15:20.408Z,61.73
2022-11-06T15:18:26.456Z,60.40
2022-11-06T15:21:34.438Z,60.97
2022-11-06T15:24:43.014Z,65.53
2022-11-06T15:27:54.168Z,64.93
2022-11-06T15:31:02.767Z,64.90
2022-11-06T15:34:14.490Z,63.97
2022-11-06T15:37:23.126Z,69.23
2022-11-06T15:40:30.119Z,65.57
2022-11-06T15:43:37.648Z,61.30
2022-11-06T15:46:54.579Z,60.43
2022-11-06T15:50:15.688Z,62.40
2022-11-06T15:53:23.847Z,62.03
2022-11-06T15:56:33.375Z,59.63
2022-11-06T15:59:37.106Z,60.67
2022-11-06T16:02:50.878Z,57.80
2022-11-06T16:05:56.405Z,58.60
2022-11-06T16:09:03.548Z,63.87
2022-11-06T16:12:08.026Z,57.77
2022-11-06T16:15:44.826Z,55.63
2022-11-06T16:18:49.595Z,58.70
2022-11-06T16:21:57.486Z,56.83
2022-11-06T16:25:05.399Z,57.23
2022-11-06T16:28:17.565Z,65.43
2022-11-06T16:31:24.675Z,57.80
2022-11-06T16:34:44.190Z,61.03
2022-11-06T16:37:48.055Z,71.00
2022-11-06T16:40:54.505Z,83.33
2022-11-06T16:44:27.807Z,77.07
2022-11-06T16:47:34.433Z,69.43
2022-11-06T16:50:46.439Z,58.87
2022-11-06T16:53:56.378Z,58.83
2022-11-06T16:57:10.681Z,57.77
2022-11-06T17:00:26.047Z,56.50
2022-11-06T17:03:36.319Z,55.93
2022-11-06T17:06:40.166Z,64.43
2022-11-06T17:09:44.295Z,64.30
2022-11-06T17:12:49.485Z,60.67
2022-11-06T17:15:56.619Z,58.77
2022-11-06T17:19:00.498Z,60.83
2022-11-06T17:22:07.145Z,59.37
2022-11-06T17:25:11.132Z,58.60
2022-11-06T17:28:16.758Z,57.33
2022-11-06T17:31:21.760Z,60.77
2022-11-06T17:34:25.596Z,54.07
2022-11-06T17:37:29.489Z,61.80
2022-11-06T17:40:33.354Z,60.50
2022-11-06T17:43:38.565Z,60.13
2022-11-06T17:46:44.816Z,63.83
2022-11-06T17:49:49.044Z,63.40
2022-11-06T17:52:52.846Z,61.43
2022-11-06T17:55:56.698Z,58.67
2022-11-06T17:59:01.929Z,53.30
2022-11-06T18:02:06.051Z,60.23
2022-11-06T18:05:10.610Z,58.87
2022-11-06T18:08:15.918Z,62.37
2022-11-06T18:11:20.033Z,53.13
2022-11-06T18:14:26.654Z,57.23
2022-11-06T18:17:30.305Z,59.90
2022-11-06T18:20:34.068Z,58.60
2022-11-06T18:23:37.915Z,57.20
2022-11-06T18:26:43.089Z,56.63
2022-11-06T18:29:48.306Z,64.57
2022-11-06T18:32:52.098Z,60.53
2022-11-06T18:35:55.886Z,60.80
2022-11-06T18:38:59.805Z,54.63
2022-11-06T18:42:04.213Z,51.57
2022-11-06T18:45:10.328Z,61.77
2022-11-06T18:48:19.796Z,53.30
2022-11-06T18:51:35.029Z,59.07
2022-11-06T18:54:39.958Z,51.30
2022-11-06T18:57:43.911Z,56.73
2022-11-06T19:00:49.148Z,59.37
2022-11-06T19:03:54.179Z,59.87
2022-11-06T19:06:57.867Z,58.77
2022-11-06T19:10:05.177Z,57.97
2022-11-06T19:13:08.837Z,63.57
2022-11-06T19:16:14.591Z,65.07
2022-11-06T19:19:25.247Z,69.00
2022-11-06T19:22:31.278Z,62.57
2022-11-06T19:25:35.157Z,57.47
2022-11-06T19:28:38.926Z,54.00
2022-11-06T19:31:44.207Z,58.30
2022-11-06T19:34:48.184Z,52.20
2022-11-06T19:37:52.470Z,47.30
2022-11-06T19:40:57.880Z,45.33
2022-11-06T19:44:01.788Z,44.23
2022-11-06T19:47:07.032Z,49.20
2022-11-06T19:50:11.394Z,44.73
2022-11-06T19:53:18.549Z,49.73
2022-11-06T19:56:23.437Z,42.53
2022-11-06T19:59:27.066Z,48.73
2022-11-06T20:02:32.555Z,45.70
2022-11-06T20:05:36.729Z,51.53
2022-11-06T20:08:40.645Z,51.57
2022-11-06T20:11:44.678Z,51.53
2022-11-06T20:14:49.375Z,51.17
2022-11-06T20:17:54.608Z,51.30
2022-11-06T20:21:02.119Z,52.37
2022-11-06T20:24:08.545Z,47.73
2022-11-06T20:27:12.858Z,48.87
2022-11-06T20:30:17.243Z,55.00
2022-11-06T20:33:22.588Z,47.90
2022-11-06T20:36:28.144Z,48.63
2022-11-06T20:39:32.260Z,48.33
2022-11-06T20:42:36.135Z,47.00
2022-11-06T20:45:41.141Z,52.83
2022-11-06T20:48:47.257Z,50.10
2022-11-06T20:52:12.743Z,52.43
2022-11-06T20:55:15.177Z,50.30
2022-11-06T20:58:18.854Z,55.07
2022-11-06T21:01:24.421Z,49.80
2022-11-06T21:04:29.833Z,48.20
2022-11-06T21:07:35.387Z,47.43
2022-11-06T21:10:39.749Z,46.87
2022-11-06T21:13:44.297Z,50.37
2022-11-06T21:16:48.317Z,54.10
2022-11-06T21:19:53.744Z,48.77
2022-11-06T21:22:57.738Z,50.77
2022-11-06T21:26:06.900Z,52.03
2022-11-06T21:29:12.213Z,58.60
2022-11-06T21:32:15.988Z,51.33
2022-11-06T21:35:21.352Z,52.10
2022-11-06T21:38:25.046Z,48.03
2022-11-06T21:41:33.236Z,49.07
2022-11-06T21:44:37.172Z,55.97
2022-11-06T21:47:40.725Z,51.33
2022-11-06T21:50:45.968Z,47.93
2022-11-06T21:54:08.245Z,49.10
2022-11-06T21:57:12.155Z,44.67
2022-11-06T22:00:16.726Z,52.47
2022-11-06T22:03:20.814Z,53.47
2022-11-06T22:06:27.723Z,51.47
2022-11-06T22:09:31.553Z,74.03
2022-11-06T22:12:36.154Z,50.40
2022-11-06T22:15:39.723Z,48.03
2022-11-06T22:18:43.688Z,51.63
2022-11-06T22:21:48.719Z,48.30
2022-11-06T22:24:52.549Z,47.77
2022-11-06T22:27:56.108Z,50.10
2022-11-06T22:30:59.968Z,46.10
2022-11-06T22:34:03.974Z,50.70
2022-11-06T22:37:09.292Z,47.40
2022-11-06T22:40:13.685Z,48.33
2022-11-06T22:43:17.391Z,49.30
2022-11-06T22:46:23.018Z,44.70
2022-11-06T22:49:27.259Z,40.77
2022-11-06T22:52:32.267Z,48.80
2022-11-06T22:55:36.084Z,48.10
2022-11-06T22:58:39.804Z,45.27
2022-11-06T23:01:44.066Z,46.33
2022-11-06T23:04:47.596Z,48.03
2022-11-06T23:07:52.917Z,45.40
2022-11-06T23:10:57.598Z,45.73
2022-11-06T23:14:07.482Z,44.27
2022-11-06T23:17:12.484Z,46.50
2022-11-06T23:20:17.125Z,43.07
2022-11-06T23:23:22.255Z,38.70
2022-11-06T23:26:26.073Z,42.50
2022-11-06T23:29:29.793Z,43.87
2022-11-06T23:32:35.844Z,48.10
2022-11-06T23:35:39.476Z,48.60
2022-11-06T23:38:45.629Z,49.57
2022-11-06T23:41:49.338Z,44.47
2022-11-06T23:45:22.023Z,38.07
2022-11-06T23:48:25.687Z,45.13
2022-11-06T23:51:29.587Z,39.97
2022-11-06T23:54:34.832Z,41.63
2022-11-06T23:57:38.779Z,41.40
